Time;durP1;ratioP1;P1;durP2;ratioP2;P2;SDS_P1;SDS_P2;PMS_P1;PMS_P2;Temp;Humidity;BMP_temperature;BMP_pressure;BME280_temperature;BME280_humidity;BME280_pressure;Samples;Min_cycle;Max_cycle;Signal;HPM_P1;HPM_P2
2023/04/19 00:02:02;;;;;;;46.70;3.93;;;;;;;22.75;57.25;100202.38;7311460;19;130398;-42
2023/04/19 00:04:27;;;;;;;42.53;3.97;;;;;;;22.77;56.93;100210.94;7311038;19;129473;-41
2023/04/19 00:06:52;;;;;;;13.18;2.40;;;;;;;22.77;57.53;100195.19;7310597;19;129260;-42
2023/04/19 00:09:18;;;;;;;43.03;4.38;;;;;;;22.78;57.24;100199.47;7311988;19;130139;-40
2023/04/19 00:11:43;;;;;;;46.08;4.22;;;;;;;22.76;57.59;100201.38;7318819;19;131262;-40
2023/04/19 00:14:08;;;;;;;45.37;3.67;;;;;;;22.77;57.74;100187.34;7317691;19;131246;-40
2023/04/19 00:16:34;;;;;;;22.13;2.40;;;;;;;22.77;57.66;100197.81;7316284;19;129131;-38
2023/04/19 00:19:00;;;;;;;47.00;4.30;;;;;;;22.79;57.15;100195.91;7315806;19;130201;-42
2023/04/19 00:21:26;;;;;;;41.17;3.47;;;;;;;;;;7318237;19;131809;-41
2023/04/19 00:23:52;;;;;;;28.37;3.10;;;;;;;22.74;57.58;100190.22;7318388;19;128976;-42
2023/04/19 00:26:18;;;;;;;;;;;;;;;22.83;57.35;100187.63;7317753;19;130467;-42
2023/04/19 00:28:43;;;;;;;27.92;3.00;;;;;;;22.77;57.45;100182.09;7315550;19;130690;-40
2023/04/19 00:31:08;;;;;;;41.97;4.28;;;;;;;22.74;56.98;100183.16;7317878;19;130397;-39
2023/04/19 00:33:34;;;;;;;43.08;4.28;;;;;;;22.58;56.94;100161.03;7317487;19;129092;-43
2023/04/19 00:35:59;;;;;;;31.43;3.07;;;;;;;22.68;57.26;100177.63;7316933;19;130773;-42
2023/04/19 00:38:25;;;;;;;47.10;3.92;;;;;;;22.69;57.34;100179.31;7315687;19;129207;-41
2023/04/19 00:40:50;;;;;;;38.60;3.42;;;;;;;22.69;57.79;100171.44;7318680;19;130297;-40
2023/04/19 00:43:17;;;;;;;37.40;3.58;;;;;;;22.69;57.52;100179.31;7317067;19;130315;-42
2023/04/19 00:45:43;;;;;;;37.58;3.45;;;;;;;22.68;57.54;100175.00;7316546;19;129854;-39
2023/04/19 00:48:08;;;;;;;53.15;4.35;;;;;;;22.62;57.29;100162.44;7314865;19;130229;-40
2023/04/19 00:50:34;;;;;;;53.80;4.07;;;;;;;22.67;58.03;100173.38;7316625;19;129651;-39
2023/04/19 00:53:01;;;;;;;15.50;2.30;;;;;;;22.66;57.87;100174.34;7317283;19;129044;-42
2023/04/19 00:55:26;;;;;;;55.38;4.57;;;;;;;22.66;57.31;100169.09;7316289;19;129288;-38
2023/04/19 00:57:53;;;;;;;48.85;4.15;;;;;;;22.58;57.72;100155.78;7315705;19;129303;-41
2023/04/19 01:00:18;;;;;;;31.27;3.30;;;;;;;22.66;58.06;100171.72;7317025;19;130248;-42
2023/04/19 01:02:44;;;;;;;34.90;3.10;;;;;;;22.66;57.12;100163.84;7316713;19;129093;-42
2023/04/19 01:05:10;;;;;;;40.47;4.07;;;;;;;22.57;58.01;100144.50;7315918;19;128979;-38
2023/04/19 01:07:35;;;;;;;42.38;3.70;;;;;;;22.67;58.11;100166.34;7315166;19;130102;-42
2023/04/19 01:10:01;;;;;;;48.80;4.07;;;;;;;22.68;57.36;100156.66;7316823;19;131117;-42
2023/04/19 01:12:26;;;;;;;38.72;3.78;;;;;;;22.64;57.39;100150.03;7315964;19;129962;-40
2023/04/19 01:14:51;;;;;;;43.58;3.45;;;;;;;22.63;58.00;100159.69;7315884;19;130486;-40
2023/04/19 01:17:18;;;;;;;49.20;4.13;;;;;;;22.61;57.65;100147.69;7314769;19;130597;-39
2023/04/19 01:19:43;;;;;;;7.45;1.90;;;;;;;22.60;57.66;100148.63;7312147;19;130643;-41
2023/04/19 01:22:09;;;;;;;34.83;3.10;;;;;;;22.62;57.84;100146.72;7315189;19;129132;-42
2023/04/19 01:24:34;;;;;;;48.37;3.93;;;;;;;22.65;58.07;100151.69;7315723;19;130489;-41
2023/04/19 01:27:01;;;;;;;34.92;3.28;;;;;;;22.63;58.07;100148.38;7314738;19;130086;-42
2023/04/19 01:29:26;;;;;;;35.65;3.35;;;;;;;22.62;57.70;100139.69;7313701;19;130666;-39
2023/04/19 01:31:52;;;;;;;36.08;3.40;;;;;;;22.60;58.17;100143.41;7315148;19;129188;-39
2023/04/19 01:34:24;;;;;;;38.50;3.38;;;;;;;22.60;58.27;100146.84;7315154;19;129306;-41
2023/04/19 01:36:50;;;;;;;36.10;3.33;;;;;;;22.60;57.94;100146.03;7314730;19;129343;-42
2023/04/19 01:39:15;;;;;;;30.73;3.30;;;;;;;22.62;57.94;100146.72;7312548;19;129201;-42
2023/04/19 01:41:41;;;;;;;45.80;3.88;;;;;;;22.52;57.49;100124.84;7314497;19;129189;-42
2023/04/19 01:44:06;;;;;;;50.35;3.80;;;;;;;22.61;57.85;100142.44;7314424;19;129360;-41
2023/04/19 01:46:31;;;;;;;33.40;3.28;;;;;;;22.62;57.84;100139.69;7313378;19;130130;-42
2023/04/19 01:48:57;;;;;;;24.23;2.63;;;;;;;22.62;58.01;100138.88;7313375;19;129914;-42
2023/04/19 01:51:22;;;;;;;28.13;2.83;;;;;;;22.50;57.57;100127.63;7313985;19;129604;-42
2023/04/19 01:53:52;;;;;;;33.67;2.88;;;;;;;22.60;57.94;100138.16;7314302;19;129478;-41
2023/04/19 01:56:18;;;;;;;36.33;3.45;;;;;;;22.57;57.85;100138.44;7313765;19;131284;-42
2023/04/19 01:58:43;;;;;;;44.83;3.57;;;;;;;22.53;57.68;100123.91;7312800;19;129651;-42
2023/04/19 02:01:11;;;;;;;33.22;3.40;;;;;;;22.60;57.42;100139.00;7313903;19;129058;-42
2023/04/19 02:03:37;;;;;;;44.08;3.40;;;;;;;22.59;58.02;100132.06;7314717;19;129979;-41
2023/04/19 02:06:02;;;;;;;30.50;2.87;;;;;;;22.60;57.83;100127.69;7314520;19;129584;-41
2023/04/19 02:08:28;;;;;;;24.27;2.90;;;;;;;22.59;56.66;100132.06;7313685;19;129594;-39
2023/04/19 02:10:53;;;;;;;31.53;3.10;;;;;;;22.60;57.69;100132.91;7314216;19;129070;-41
2023/04/19 02:13:18;;;;;;;46.37;3.53;;;;;;;22.59;57.45;100139.13;7314322;19;131089;-42
2023/04/19 02:15:44;;;;;;;68.32;4.72;;;;;;;22.58;57.74;100135.66;7313892;19;129199;-41
2023/04/19 02:18:10;;;;;;;29.15;3.00;;;;;;;22.58;58.25;100135.66;7313345;19;129204;-41
2023/04/19 02:20:35;;;;;;;31.50;2.85;;;;;;;22.58;57.60;100129.59;7314041;19;129524;-40
2023/04/19 02:23:01;;;;;;;64.45;4.40;;;;;;;22.46;57.88;100109.69;7314285;19;129166;-42
2023/04/19 02:25:26;;;;;;;48.50;4.03;;;;;;;22.58;58.08;100126.97;7313995;19;130705;-40
2023/04/19 02:27:52;;;;;;;37.95;3.33;;;;;;;22.58;57.42;100114.72;7313186;19;130421;-41
2023/04/19 02:30:18;;;;;;;18.07;2.30;;;;;;;22.59;57.59;100126.03;7313109;19;129925;-42
2023/04/19 02:32:43;;;;;;;44.20;3.72;;;;;;;22.57;57.93;100131.41;7313018;19;129578;-39
2023/04/19 02:35:09;;;;;;;52.10;4.15;;;;;;;22.60;57.09;100130.28;7312426;19;130278;-39
2023/04/19 02:37:34;;;;;;;33.53;3.00;;;;;;;22.59;58.16;100128.66;7313213;19;129551;-42
2023/04/19 02:39:59;;;;;;;32.78;3.00;;;;;;;22.57;57.33;100122.69;7310801;19;129931;-42
2023/04/19 02:42:25;;;;;;;31.10;2.67;;;;;;;22.56;58.19;100121.88;7313875;19;128827;-41
2023/04/19 02:44:50;;;;;;;37.93;3.50;;;;;;;22.54;58.24;100120.34;7313451;19;130165;-40
2023/04/19 02:47:15;;;;;;;37.97;3.77;;;;;;;22.46;57.88;100101.81;7311889;19;131230;-43
2023/04/19 02:49:41;;;;;;;29.15;2.85;;;;;;;22.52;58.04;100114.38;7309862;19;129156;-41
2023/04/19 02:52:07;;;;;;;31.27;2.67;;;;;;;22.56;57.72;100113.19;7313232;19;129672;-42
2023/04/19 02:54:33;;;;;;;19.53;2.43;;;;;;;22.56;58.05;100119.25;7312541;19;130113;-41
2023/04/19 02:56:59;;;;;;;20.77;2.30;;;;;;;22.53;58.01;100105.56;7312019;19;129448;-42
2023/04/19 02:59:25;;;;;;;49.40;3.88;;;;;;;22.53;57.98;100106.41;7310002;19;128979;-38
2023/04/19 03:01:50;;;;;;;21.00;2.43;;;;;;;22.54;57.87;100115.13;7312920;19;130978;-41
2023/04/19 03:04:16;;;;;;;22.00;2.42;;;;;;;22.51;58.34;100097.81;7312530;19;129789;-40
2023/04/19 03:06:43;;;;;;;40.70;3.43;;;;;;;22.43;58.07;100079.31;7311719;19;129695;-40
2023/04/19 03:09:08;;;;;;;52.70;3.80;;;;;;;22.41;57.53;100077.81;7311024;19;129155;-39
2023/04/19 03:11:34;;;;;;;30.15;2.58;;;;;;;22.53;57.76;100101.19;7312906;19;130165;-42
2023/04/19 03:13:59;;;;;;;33.47;3.27;;;;;;;22.46;57.99;100083.47;7311777;19;130513;-41
2023/04/19 03:16:25;;;;;;;50.55;3.50;;;;;;;22.55;57.88;100087.94;7310078;19;131112;-42
2023/04/19 03:18:50;;;;;;;62.97;4.57;;;;;;;22.53;57.96;100089.84;7310768;19;130361;-41
2023/04/19 03:21:16;;;;;;;26.23;2.35;;;;;;;22.54;57.70;100084.50;7312427;19;129353;-42
2023/04/19 03:23:41;;;;;;;15.70;2.00;;;;;;;22.52;58.09;100082.94;7311228;19;129083;-31
2023/04/19 03:26:06;;;;;;;40.50;3.03;;;;;;;22.53;57.22;100079.38;7310008;19;130954;-39
2023/04/19 03:28:32;;;;;;;49.83;3.60;;;;;;;22.54;57.60;100083.66;7310649;19;129319;-36
2023/04/19 03:30:57;;;;;;;31.73;2.67;;;;;;;22.50;57.87;100066.50;7312108;19;128988;-32
2023/04/19 03:33:22;;;;;;;26.30;2.50;;;;;;;22.51;58.12;100065.56;7311299;19;129109;-36
2023/04/19 03:35:48;;;;;;;37.27;3.23;;;;;;;22.48;57.76;100076.28;7310927;19;130305;-37
2023/04/19 03:38:13;;;;;;;46.88;3.60;;;;;;;22.37;58.04;100063.31;7311242;19;129404;-34
2023/04/19 03:40:38;;;;;;;30.25;2.65;;;;;;;22.01;57.15;100061.25;7311767;19;129503;-33
2023/04/19 03:43:04;;;;;;;42.87;3.73;;;;;;;21.70;57.64;100069.03;7311118;19;129223;-33
2023/04/19 03:45:29;;;;;;;52.38;3.80;;;;;;;21.68;57.73;100070.94;7316683;19;130354;-38
2023/04/19 03:47:55;;;;;;;38.27;3.00;;;;;;;21.72;57.91;100061.88;7318744;19;129207;-36
2023/04/19 03:50:20;;;;;;;35.27;3.10;;;;;;;21.76;57.67;100057.22;7317951;19;128876;-36
2023/04/19 03:52:45;;;;;;;35.73;3.00;;;;;;;21.73;57.83;100042.59;7317609;19;129263;-36
2023/04/19 03:55:11;;;;;;;72.43;4.95;;;;;;;21.88;57.68;100062.28;7316820;19;129643;-35
2023/04/19 03:57:37;;;;;;;35.20;2.90;;;;;;;21.85;57.14;100041.59;7317218;19;129664;-36
2023/04/19 04:00:06;;;;;;;39.92;3.15;;;;;;;21.96;57.26;100051.16;7316253;19;129140;-32
2023/04/19 04:02:31;;;;;;;49.75;3.88;;;;;;;22.06;56.62;100064.28;7316384;19;130210;-42
2023/04/19 04:04:57;;;;;;;46.63;3.25;;;;;;;22.05;57.30;100062.66;7316695;19;129512;-44
2023/04/19 04:07:23;;;;;;;33.33;2.57;;;;;;;22.00;56.57;100041.25;7316976;19;129623;-34
2023/04/19 04:09:49;;;;;;;27.05;2.28;;;;;;;22.14;56.43;100062.69;7315980;19;129886;-37
2023/04/19 04:12:15;;;;;;;60.80;4.00;;;;;;;22.18;56.96;100058.00;7317736;19;130515;-33
2023/04/19 04:14:40;;;;;;;54.22;4.22;;;;;;;22.14;56.34;100051.38;7316851;19;130264;-33
2023/04/19 04:17:05;;;;;;;35.25;2.67;;;;;;;22.28;56.13;100064.13;7316363;19;129654;-33
2023/04/19 04:19:31;;;;;;;26.80;2.17;;;;;;;22.23;56.27;100056.63;7314786;19;129648;-34
2023/04/19 04:21:56;;;;;;;71.70;4.80;;;;;;;22.43;55.93;100078.50;7315984;19;130177;-37
2023/04/19 04:24:22;;;;;;;35.50;2.80;;;;;;;22.46;55.82;100070.38;7315570;19;130284;-35
2023/04/19 04:26:48;;;;;;;40.20;2.97;;;;;;;22.50;56.01;100069.13;7315344;19;129365;-33
2023/04/19 04:29:14;;;;;;;41.83;3.05;;;;;;;22.56;55.63;100071.28;7314091;19;129088;-33
2023/04/19 04:31:39;;;;;;;43.30;3.13;;;;;;;22.58;55.70;100074.56;7316558;19;129079;-31
2023/04/19 04:34:05;;;;;;;84.53;5.55;;;;;;;22.66;55.79;100075.56;7313220;19;130372;-37
2023/04/19 04:36:30;;;;;;;46.90;3.53;;;;;;;22.54;55.99;100054.84;7316218;19;129499;-33
2023/04/19 04:38:56;;;;;;;30.53;2.40;;;;;;;22.59;55.61;100058.69;7313266;19;128986;-32
2023/04/19 04:41:22;;;;;;;43.40;3.27;;;;;;;22.46;55.81;100049.41;7314116;19;129238;-39
2023/04/19 04:43:50;;;;;;;94.78;6.13;;;;;;;22.51;55.83;100068.19;7314732;19;130855;-31
2023/04/19 04:46:16;;;;;;;49.97;3.70;;;;;;;22.46;55.83;100058.09;7314075;19;129558;-37
2023/04/19 04:48:41;;;;;;;34.45;2.78;;;;;;;22.39;55.96;100059.59;7314543;19;130008;-40
2023/04/19 04:51:06;;;;;;;42.60;3.23;;;;;;;22.29;57.04;100055.28;7311824;19;130093;-33
2023/04/19 04:53:32;;;;;;;29.30;2.50;;;;;;;22.23;56.46;100050.59;7314680;19;131050;-34
2023/04/19 04:55:57;;;;;;;33.28;2.88;;;;;;;22.16;57.38;100057.31;7311986;19;130458;-36
2023/04/19 04:58:22;;;;;;;41.37;2.90;;;;;;;22.12;57.28;100053.28;7312764;19;130085;-33
2023/04/19 05:00:48;;;;;;;55.17;3.67;;;;;;;22.08;57.34;100060.56;7315533;19;129184;-39
2023/04/19 05:03:14;;;;;;;58.17;4.30;;;;;;;22.06;57.71;100061.69;7308372;19;130636;-36
2023/04/19 05:05:39;;;;;;;82.20;5.17;;;;;;;22.03;58.54;100062.78;7311100;19;129692;-32
2023/04/19 05:08:05;;;;;;;39.83;3.10;;;;;;;22.07;57.84;100063.31;7307250;19;129214;-34
2023/04/19 05:10:30;;;;;;;66.00;4.23;;;;;;;22.04;57.27;100056.56;7311229;19;131234;-43
2023/04/19 05:12:55;;;;;;;63.05;4.53;;;;;;;22.02;56.74;100058.47;7306274;19;129481;-33
2023/04/19 05:15:21;;;;;;;75.25;5.43;;;;;;;22.04;56.88;100066.22;7313286;19;128819;-36
2023/04/19 05:17:47;;;;;;;69.73;4.63;;;;;;;22.08;57.67;100059.75;7310468;19;129631;-36
2023/04/19 05:20:12;;;;;;;47.72;3.38;;;;;;;22.13;57.09;100060.19;7312007;19;129065;-35
2023/04/19 05:22:38;;;;;;;45.30;3.28;;;;;;;22.17;57.32;100066.81;7314314;19;130678;-32
2023/04/19 05:25:04;;;;;;;27.65;2.33;;;;;;;22.23;57.33;100067.13;7313913;19;129357;-32
2023/04/19 05:27:30;;;;;;;47.15;3.63;;;;;;;22.24;56.98;100067.94;7313484;19;129254;-37
2023/04/19 05:29:55;;;;;;;39.97;2.75;;;;;;;22.23;56.62;100067.13;7313021;19;130168;-36
2023/04/19 05:32:21;;;;;;;30.87;2.47;;;;;;;22.17;56.99;100051.09;7314055;19;129393;-34
2023/04/19 05:34:46;;;;;;;29.55;2.38;;;;;;;22.14;57.00;100064.47;7311745;19;129456;-33
2023/04/19 05:37:11;;;;;;;54.47;3.75;;;;;;;22.11;57.72;100062.13;7310518;19;129638;-35
2023/04/19 05:39:37;;;;;;;56.90;4.03;;;;;;;22.06;57.60;100053.81;7312392;19;130128;-39
2023/04/19 05:42:02;;;;;;;41.90;3.05;;;;;;;22.09;57.24;100064.03;7313751;19;129444;-37
2023/04/19 05:44:27;;;;;;;26.73;2.40;;;;;;;22.04;58.13;100058.34;7313799;19;129210;-37
2023/04/19 05:46:53;;;;;;;43.03;3.10;;;;;;;22.07;56.32;100061.53;7311107;19;130019;-36
2023/04/19 05:49:18;;;;;;;39.08;3.42;;;;;;;21.90;56.39;100042.03;7310921;19;130127;-38
2023/04/19 05:51:44;;;;;;;45.90;3.40;;;;;;;22.00;56.13;100062.22;7311649;19;130168;-41
2023/04/19 05:54:11;;;;;;;45.65;3.33;;;;;;;22.05;56.52;100058.22;7310517;19;129180;-35
2023/04/19 05:56:37;;;;;;;59.08;3.92;;;;;;;22.10;56.35;100060.47;7308678;19;129266;-38
2023/04/19 05:59:02;;;;;;;34.50;3.30;;;;;;;22.15;56.41;100053.03;7308652;19;129532;-36
2023/04/19 06:01:28;;;;;;;31.45;2.60;;;;;;;22.23;56.51;100055.81;7310034;19;129262;-35
2023/04/19 06:03:53;;;;;;;84.75;5.43;;;;;;;22.24;55.86;100058.31;7309354;19;129530;-34
2023/04/19 06:06:21;;;;;;;77.13;4.95;;;;;;;22.22;56.50;100070.69;7307893;19;129153;-38
2023/04/19 06:08:46;;;;;;;32.15;2.70;;;;;;;22.30;56.10;100064.78;7310440;19;129891;-35
2023/04/19 06:11:11;;;;;;;30.83;3.03;;;;;;;22.28;56.18;100064.13;7314411;19;129260;-36
2023/04/19 06:13:37;;;;;;;11.85;1.70;;;;;;;22.26;55.91;100052.94;7314292;19;129473;-37
2023/04/19 06:16:02;;;;;;;47.43;3.57;;;;;;;22.23;56.40;100047.97;7314244;19;129028;-32
2023/04/19 06:18:28;;;;;;;36.22;2.95;;;;;;;22.18;57.05;100042.28;7314031;19;129939;-35
2023/04/19 06:20:53;;;;;;;32.53;2.80;;;;;;;22.17;56.94;100057.19;7313494;19;129869;-38
2023/04/19 06:23:19;;;;;;;43.00;3.20;;;;;;;22.16;57.01;100039.81;7314180;19;128807;-32
2023/04/19 06:25:44;;;;;;;24.50;2.25;;;;;;;22.17;56.82;100043.25;7313319;19;129635;-36
2023/04/19 06:28:10;;;;;;;36.83;3.20;;;;;;;22.12;57.31;100046.25;7312766;19;130543;-32
2023/04/19 06:30:35;;;;;;;40.58;3.40;;;;;;;22.14;57.87;100057.44;7312442;19;129466;-40
2023/04/19 06:33:01;;;;;;;57.75;3.90;;;;;;;22.15;58.09;100066.13;7312364;19;128816;-30
2023/04/19 06:35:26;;;;;;;46.35;3.50;;;;;;;22.13;57.59;100061.00;7313548;19;129052;-30
2023/04/19 06:37:51;;;;;;;33.10;2.75;;;;;;;22.11;57.58;100068.19;7313246;19;129665;-30
2023/04/19 06:40:17;;;;;;;20.00;2.30;;;;;;;22.14;57.59;100067.09;7311421;19;129256;-33
2023/04/19 06:42:42;;;;;;;76.97;5.03;;;;;;;22.18;56.93;100063.25;7312496;19;129054;-34
2023/04/19 06:45:08;;;;;;;46.83;3.50;;;;;;;22.21;57.10;100073.47;7313224;19;129740;-37
2023/04/19 06:47:33;;;;;;;25.17;2.17;;;;;;;22.22;56.42;100069.88;7312781;19;130528;-35
2023/04/19 06:49:59;;;;;;;28.02;2.38;;;;;;;22.35;56.47;100059.97;7309899;19;129514;-34
2023/04/19 06:52:25;;;;;;;33.07;2.70;;;;;;;22.34;56.30;100063.56;7312367;19;128928;-39
2023/04/19 06:54:50;;;;;;;37.40;3.13;;;;;;;22.29;56.41;100060.53;7311958;19;128844;-39
2023/04/19 06:57:17;;;;;;;26.50;2.33;;;;;;;22.22;56.75;100064.63;7312094;19;130435;-34
2023/04/19 06:59:43;;;;;;;28.80;2.67;;;;;;;22.19;56.47;100044.78;7309969;19;129180;-29
2023/04/19 07:02:08;;;;;;;47.40;3.33;;;;;;;22.15;57.52;100034.72;7312474;19;129269;-40
2023/04/19 07:04:33;;;;;;;44.60;3.13;;;;;;;22.16;57.58;100031.97;7313376;19;129469;-33
2023/04/19 07:06:59;;;;;;;36.88;2.88;;;;;;;22.08;57.39;100026.53;7311952;19;130070;-36
2023/04/19 07:09:25;;;;;;;47.60;3.57;;;;;;;22.14;57.61;100040.88;7310736;19;130812;-33
2023/04/19 07:11:50;;;;;;;40.83;2.90;;;;;;;22.15;57.20;100034.72;7312953;19;129100;-35
2023/04/19 07:14:18;;;;;;;33.13;2.53;;;;;;;22.12;58.20;100037.56;7313243;19;129289;-35
2023/04/19 07:16:44;;;;;;;31.92;2.50;;;;;;;22.13;57.60;100031.41;7312407;19;130207;-37
2023/04/19 07:19:10;;;;;;;;;;;;;;;22.09;58.68;100022.97;7309772;19;130755;-37
2023/04/19 07:21:37;;;;;;;34.42;2.75;;;;;;;22.10;57.78;100029.03;7313147;19;129696;-42
2023/04/19 07:24:02;;;;;;;37.70;2.88;;;;;;;22.10;57.60;100023.81;7312989;19;129211;-34
2023/04/19 07:26:28;;;;;;;32.78;2.92;;;;;;;22.10;57.72;100013.34;7311477;19;129133;-37
2023/04/19 07:28:53;;;;;;;36.58;2.88;;;;;;;22.10;57.38;100019.38;7310631;19;131064;-32
2023/04/19 07:31:18;;;;;;;30.25;2.17;;;;;;;22.16;57.20;100023.25;7312562;19;128955;-44
2023/04/19 07:33:44;;;;;;;10.27;1.57;;;;;;;22.22;56.75;100017.47;7312040;19;129214;-33
2023/04/19 07:36:10;;;;;;;29.33;2.30;;;;;;;22.17;56.29;99998.72;7311694;19;130330;-31
2023/04/19 07:38:35;;;;;;;60.43;4.27;;;;;;;22.26;57.06;100005.78;7309770;19;129175;-34
2023/04/19 07:41:02;;;;;;;61.92;4.10;;;;;;;22.23;57.03;100006.06;7312036;19;130768;-33
2023/04/19 07:43:29;;;;;;;24.65;2.05;;;;;;;22.17;56.63;100004.78;7311890;19;129506;-33
2023/04/19 07:45:54;;;;;;;32.38;2.40;;;;;;;22.17;56.91;100003.97;7311217;19;129541;-40
2023/04/19 07:48:20;;;;;;;45.43;3.07;;;;;;;22.17;57.13;100006.56;7310243;19;130401;-35
2023/04/19 07:50:45;;;;;;;38.22;2.80;;;;;;;22.14;57.42;100006.84;7312084;19;128937;-34
2023/04/19 07:53:11;;;;;;;42.70;3.33;;;;;;;22.14;57.09;99993.75;7311759;19;130101;-33
2023/04/19 07:55:36;;;;;;;36.30;2.73;;;;;;;22.12;59.09;99995.66;7310724;19;130273;-33
2023/04/19 07:58:01;;;;;;;45.40;2.92;;;;;;;22.13;57.53;100007.81;7310354;19;129177;-37
2023/04/19 08:00:28;;;;;;;10.60;1.20;;;;;;;22.11;58.64;100000.09;7309818;19;129428;-35
2023/04/19 08:02:55;;;;;;;28.77;2.38;;;;;;;22.09;58.23;99990.72;7310738;19;129054;-36
2023/04/19 08:05:21;;;;;;;40.72;3.05;;;;;;;22.07;57.91;100003.09;7309182;19;130510;-38
2023/04/19 08:07:46;;;;;;;40.72;3.03;;;;;;;22.05;58.35;99994.56;7309976;19;129507;-40
2023/04/19 08:10:12;;;;;;;30.88;2.28;;;;;;;22.02;58.83;99990.41;7311376;19;129754;-42
2023/04/19 08:12:38;;;;;;;20.90;1.92;;;;;;;22.01;57.83;99993.16;7310315;19;129521;-42
2023/04/19 08:15:06;;;;;;;46.87;3.13;;;;;;;21.96;58.33;99991.75;7309773;19;131916;-41
2023/04/19 08:17:32;;;;;;;43.17;2.75;;;;;;;21.81;58.03;99972.16;7310054;19;130030;-42
2023/04/19 08:19:58;;;;;;;41.90;2.95;;;;;;;21.92;57.41;99990.38;7308238;19;129087;-39
2023/04/19 08:22:24;;;;;;;51.77;3.80;;;;;;;21.91;57.29;99988.72;7310189;19;129827;-40
2023/04/19 08:24:52;;;;;;;42.58;3.20;;;;;;;21.94;57.72;99982.41;7308501;19;129777;-40
2023/04/19 08:27:18;;;;;;;46.92;3.25;;;;;;;21.98;57.27;99989.03;7309689;19;129689;-42
2023/04/19 08:29:44;;;;;;;10.68;1.27;;;;;;;22.04;57.23;99992.91;7311102;19;129091;-41
2023/04/19 08:32:13;;;;;;;21.10;2.03;;;;;;;22.14;57.00;99989.34;7317447;19;129403;-41
2023/04/19 08:34:39;;;;;;;39.13;2.80;;;;;;;22.17;57.55;99986.47;7316127;19;130065;-41
2023/04/19 08:37:06;;;;;;;46.30;3.10;;;;;;;22.17;57.40;99983.00;7316529;19;129208;-41
2023/04/19 08:39:32;;;;;;;24.90;2.05;;;;;;;22.14;57.08;99983.28;7315279;19;129448;-41
2023/04/19 08:42:03;;;;;;;24.83;2.10;;;;;;;22.12;56.99;99977.34;7316217;19;129261;-42
2023/04/19 08:44:30;;;;;;;33.13;2.55;;;;;;;22.09;57.39;99980.22;7317011;19;131413;-39
2023/04/19 08:47:00;;;;;;;57.38;3.88;;;;;;;22.09;57.97;99975.00;7315552;19;131264;-40
2023/04/19 08:49:27;;;;;;;30.25;2.45;;;;;;;22.07;57.92;99975.13;7315679;19;129433;-42
2023/04/19 08:51:53;;;;;;;24.85;2.28;;;;;;;22.08;58.94;99974.16;7316353;19;130740;-40
2023/04/19 08:54:20;;;;;;;35.33;2.35;;;;;;;22.10;57.95;99976.66;7315703;19;130131;-40
2023/04/19 08:56:46;;;;;;;47.38;2.95;;;;;;;22.07;57.42;99966.44;7314915;19;129259;-42
2023/04/19 08:59:12;;;;;;;24.05;1.90;;;;;;;22.05;57.60;99963.16;7314611;19;128765;-42
2023/04/19 09:01:38;;;;;;;28.58;2.10;;;;;;;22.00;57.96;99965.34;7316642;19;129745;-41
2023/04/19 09:04:05;;;;;;;40.13;3.08;;;;;;;22.03;57.86;99958.06;7315109;19;130128;-41
2023/04/19 09:06:35;;;;;;;42.88;2.78;;;;;;;21.97;58.28;99953.31;7315322;19;129594;-35
2023/04/19 09:09:17;;;;;;;57.22;3.65;;;;;;;22.02;59.07;99966.00;7314910;19;129165;-33
2023/04/19 09:11:42;;;;;;;42.45;2.90;;;;;;;21.96;58.64;99949.88;7317295;19;129779;-35
2023/04/19 09:14:13;;;;;;;42.72;3.10;;;;;;;21.98;58.69;99951.53;7314962;19;129549;-37
2023/04/19 09:16:38;;;;;;;58.70;3.63;;;;;;;21.94;58.06;99943.97;7313201;19;129876;-37
2023/04/19 09:19:05;;;;;;;54.92;3.70;;;;;;;21.85;58.34;99931.66;7313901;19;129390;-39
2023/04/19 09:21:31;;;;;;;;;;;;;;;21.91;58.33;99940.78;7316513;19;128926;-37
2023/04/19 09:23:57;;;;;;;47.22;3.22;;;;;;;21.88;57.66;99941.84;7314878;19;129086;-39
2023/04/19 09:26:22;;;;;;;53.60;3.50;;;;;;;21.86;58.10;99932.50;7314681;19;129526;-39
2023/04/19 09:29:02;;;;;;;50.95;3.25;;;;;;;21.84;57.74;99934.41;7314201;19;131120;-37
2023/04/19 09:31:29;;;;;;;74.18;4.47;;;;;;;21.95;57.71;99936.91;7315549;19;129095;-35
2023/04/19 09:33:55;;;;;;;29.85;2.15;;;;;;;22.03;57.19;99924.00;7315654;19;130499;-34
2023/04/19 09:36:29;;;;;;;35.63;2.57;;;;;;;22.11;57.61;99926.78;7313913;19;130365;-33
2023/04/19 09:38:55;;;;;;;39.42;2.88;;;;;;;22.05;57.39;99922.06;7314708;19;130686;-37
2023/04/19 09:41:20;;;;;;;59.83;3.72;;;;;;;22.07;57.57;99925.38;7313972;19;129561;-37
2023/04/19 09:43:46;;;;;;;29.98;2.13;;;;;;;22.04;57.68;99919.59;7314756;19;130072;-35
2023/04/19 09:46:34;;;;;;;49.57;3.30;;;;;;;22.02;58.41;99922.34;7313980;19;129770;-33
2023/04/19 09:49:12;;;;;;;32.80;2.30;;;;;;;22.06;58.16;99920.28;7314872;19;129553;-35
2023/04/19 09:51:43;;;;;;;;;;;;;;;22.03;58.53;99920.56;7314953;19;129300;-37
2023/04/19 09:54:11;;;;;;;35.42;2.42;;;;;;;22.03;57.96;99926.63;7314466;19;130049;-33
2023/04/19 09:56:37;;;;;;;45.75;2.90;;;;;;;22.05;57.52;99918.63;7315268;19;129217;-37
2023/04/19 09:59:03;;;;;;;16.02;1.42;;;;;;;22.02;57.19;99921.50;7314568;19;129153;-33
2023/04/19 10:01:34;;;;;;;32.95;2.25;;;;;;;21.91;59.50;99899.72;7314902;19;130975;-35
2023/04/19 10:04:04;;;;;;;44.25;3.05;;;;;;;21.94;58.55;99909.94;7312077;19;130134;-35
2023/04/19 10:06:30;;;;;;;34.97;2.50;;;;;;;21.81;57.88;99883.19;7312236;19;130332;-36
2023/04/19 10:08:59;;;;;;;35.63;2.28;;;;;;;21.94;59.04;99904.69;7313329;19;129120;-39
2023/04/19 10:11:26;;;;;;;36.45;2.50;;;;;;;21.95;58.14;99893.25;7315181;19;129414;-35
2023/04/19 10:13:58;;;;;;;48.42;3.30;;;;;;;21.89;58.44;99896.41;7313518;19;130178;-32
2023/04/19 10:16:24;;;;;;;30.20;2.22;;;;;;;21.88;58.61;99892.13;7313352;19;129478;-36
2023/04/19 10:18:51;;;;;;;39.23;2.90;;;;;;;21.87;58.08;99903.56;7312406;19;129963;-34
2023/04/19 10:21:18;;;;;;;43.22;2.95;;;;;;;21.88;58.55;99893.94;7312545;19;130098;-37
2023/04/19 10:23:43;;;;;;;37.97;2.50;;;;;;;21.84;57.84;99898.59;7313209;19;130197;-34
2023/04/19 10:26:09;;;;;;;43.92;3.08;;;;;;;21.81;58.34;99883.19;7311951;19;129267;-38
2023/04/19 10:28:35;;;;;;;41.03;2.63;;;;;;;21.87;57.92;99892.25;7311528;19;129351;-36
2023/04/19 10:31:03;;;;;;;34.83;2.40;;;;;;;21.80;57.92;99871.03;7314387;19;129166;-30
2023/04/19 10:33:33;;;;;;;48.03;3.25;;;;;;;22.00;57.54;99881.56;7312585;19;130297;-35
2023/04/19 10:35:59;;;;;;;46.40;2.90;;;;;;;22.09;57.52;99891.22;7312756;19;129885;-35
2023/04/19 10:38:46;;;;;;;57.47;3.73;;;;;;;22.06;57.25;99876.59;7313028;19;129330;-40
2023/04/19 10:41:13;;;;;;;34.95;2.35;;;;;;;22.01;57.64;99872.72;7311952;19;129195;-36
2023/04/19 10:43:39;;;;;;;;;;;;;;;21.86;59.73;99849.56;7313996;19;130487;-34
2023/04/19 10:46:19;;;;;;;36.50;2.70;;;;;;;21.97;58.55;99877.41;7312677;19;129624;-31
2023/04/19 10:49:01;;;;;;;22.83;1.92;;;;;;;22.02;59.03;99877.00;7312548;19;129255;-33
2023/04/19 10:51:28;;;;;;;37.85;2.75;;;;;;;22.00;58.29;99876.31;7311955;19;129198;-32
2023/04/19 10:53:54;;;;;;;43.55;2.78;;;;;;;22.01;59.15;99880.59;7312649;19;129239;-42
2023/04/19 10:56:32;;;;;;;22.52;1.77;;;;;;;22.01;59.42;99870.13;7312864;19;131947;-34
2023/04/19 11:01:49;;;;;;;39.88;2.60;;;;;;;21.96;58.62;99866.09;7312140;19;129148;-42
2023/04/19 11:04:34;;;;;;;26.73;2.05;;;;;;;21.85;58.52;99847.91;7311903;19;129357;-33
2023/04/19 11:07:02;;;;;;;41.63;2.95;;;;;;;21.97;60.23;99861.69;7311201;19;129802;-37
2023/04/19 11:09:33;;;;;;;46.40;2.95;;;;;;;21.95;59.61;99861.84;7310937;19;129235;-33
2023/04/19 11:12:08;;;;;;;46.95;2.95;;;;;;;21.97;60.01;99840.75;7312580;19;129165;-38
2023/04/19 11:14:36;;;;;;;12.68;1.20;;;;;;;21.95;58.60;99853.97;7312841;19;129597;-37